sensor_id;sensor_type;location;lat;lon;timestamp;P1;durP1;ratioP1;P2;durP2;ratioP2
26014;SDS011;13793;55.388;37.844;2023-04-10T00:02:22;42.93;;;27.03;;
26014;SDS011;13793;55.388;37.844;2023-04-10T00:04:52;40.27;;;28.27;;
26014;SDS011;13793;55.388;37.844;2023-04-10T00:07:22;43.73;;;26.93;;
26014;SDS011;13793;55.388;37.844;2023-04-10T00:09:53;40.43;;;28.10;;
26014;SDS011;13793;55.388;37.844;2023-04-10T00:12:24;42.70;;;28.97;;
26014;SDS011;13793;55.388;37.844;2023-04-10T00:14:54;40.40;;;27.50;;
26014;SDS011;13793;55.388;37.844;2023-04-10T00:17:25;39.43;;;27.93;;
26014;SDS011;13793;55.388;37.844;2023-04-10T00:19:56;38.20;;;27.70;;
26014;SDS011;13793;55.388;37.844;2023-04-10T00:22:27;42.93;;;27.03;;
26014;SDS011;13793;55.388;37.844;2023-04-10T00:24:57;38.90;;;25.67;;
26014;SDS011;13793;55.388;37.844;2023-04-10T00:27:28;36.37;;;24.07;;
26014;SDS011;13793;55.388;37.844;2023-04-10T00:29:58;39.73;;;24.40;;
26014;SDS011;13793;55.388;37.844;2023-04-10T00:32:33;35.37;;;24.07;;
26014;SDS011;13793;55.388;37.844;2023-04-10T00:35:03;33.83;;;24.47;;
26014;SDS011;13793;55.388;37.844;2023-04-10T00:37:34;34.87;;;24.87;;
26014;SDS011;13793;55.388;37.844;2023-04-10T00:40:05;36.67;;;24.83;;
26014;SDS011;13793;55.388;37.844;2023-04-10T00:42:36;37.17;;;25.07;;
26014;SDS011;13793;55.388;37.844;2023-04-10T00:45:07;31.80;;;23.57;;
26014;SDS011;13793;55.388;37.844;2023-04-10T00:47:39;34.27;;;24.30;;
26014;SDS011;13793;55.388;37.844;2023-04-10T00:50:09;36.97;;;25.07;;
26014;SDS011;13793;55.388;37.844;2023-04-10T00:52:40;38.07;;;26.50;;
26014;SDS011;13793;55.388;37.844;2023-04-10T00:55:12;36.67;;;24.67;;
26014;SDS011;13793;55.388;37.844;2023-04-10T00:57:44;36.23;;;23.67;;
26014;SDS011;13793;55.388;37.844;2023-04-10T01:00:16;37.80;;;25.27;;
26014;SDS011;13793;55.388;37.844;2023-04-10T01:02:48;35.97;;;25.60;;
26014;SDS011;13793;55.388;37.844;2023-04-10T01:05:19;38.70;;;26.00;;
26014;SDS011;13793;55.388;37.844;2023-04-10T01:08:07;36.63;;;25.87;;
26014;SDS011;13793;55.388;37.844;2023-04-10T01:10:48;40.93;;;27.20;;
26014;SDS011;13793;55.388;37.844;2023-04-10T01:16:28;35.40;;;26.48;;
26014;SDS011;13793;55.388;37.844;2023-04-10T01:18:57;40.27;;;26.13;;
26014;SDS011;13793;55.388;37.844;2023-04-10T01:21:29;37.80;;;26.87;;
26014;SDS011;13793;55.388;37.844;2023-04-10T01:26:52;54.13;;;33.67;;
26014;SDS011;13793;55.388;37.844;2023-04-10T01:29:37;60.07;;;33.23;;
26014;SDS011;13793;55.388;37.844;2023-04-10T01:32:10;49.43;;;31.10;;
26014;SDS011;13793;55.388;37.844;2023-04-10T01:34:48;44.80;;;31.27;;
26014;SDS011;13793;55.388;37.844;2023-04-10T01:37:21;31.73;;;21.57;;
26014;SDS011;13793;55.388;37.844;2023-04-10T01:39:57;40.70;;;27.37;;
26014;SDS011;13793;55.388;37.844;2023-04-10T01:42:30;35.97;;;24.90;;
26014;SDS011;13793;55.388;37.844;2023-04-10T01:45:01;31.03;;;21.73;;
26014;SDS011;13793;55.388;37.844;2023-04-10T01:47:33;29.87;;;21.60;;
26014;SDS011;13793;55.388;37.844;2023-04-10T01:50:05;35.07;;;22.13;;
26014;SDS011;13793;55.388;37.844;2023-04-10T01:52:36;39.50;;;25.73;;
26014;SDS011;13793;55.388;37.844;2023-04-10T01:55:09;40.03;;;22.97;;
26014;SDS011;13793;55.388;37.844;2023-04-10T01:57:47;38.93;;;23.53;;
26014;SDS011;13793;55.388;37.844;2023-04-10T02:00:20;33.30;;;22.80;;
26014;SDS011;13793;55.388;37.844;2023-04-10T02:02:50;33.77;;;21.97;;
26014;SDS011;13793;55.388;37.844;2023-04-10T02:05:21;36.00;;;24.17;;
26014;SDS011;13793;55.388;37.844;2023-04-10T02:07:59;48.30;;;26.53;;
26014;SDS011;13793;55.388;37.844;2023-04-10T02:10:33;61.33;;;36.37;;
26014;SDS011;13793;55.388;37.844;2023-04-10T02:13:06;45.20;;;29.27;;
26014;SDS011;13793;55.388;37.844;2023-04-10T02:15:37;40.57;;;28.30;;
26014;SDS011;13793;55.388;37.844;2023-04-10T02:18:10;41.20;;;27.60;;
26014;SDS011;13793;55.388;37.844;2023-04-10T02:20:41;42.43;;;27.37;;
26014;SDS011;13793;55.388;37.844;2023-04-10T02:23:14;46.37;;;29.73;;
26014;SDS011;13793;55.388;37.844;2023-04-10T02:25:48;41.20;;;28.57;;
26014;SDS011;13793;55.388;37.844;2023-04-10T02:28:18;46.10;;;28.47;;
26014;SDS011;13793;55.388;37.844;2023-04-10T02:30:49;44.10;;;28.80;;
26014;SDS011;13793;55.388;37.844;2023-04-10T02:33:19;45.80;;;29.80;;
26014;SDS011;13793;55.388;37.844;2023-04-10T02:35:52;44.73;;;29.77;;
26014;SDS011;13793;55.388;37.844;2023-04-10T02:38:23;45.20;;;28.87;;
26014;SDS011;13793;55.388;37.844;2023-04-10T02:40:53;40.03;;;27.30;;
26014;SDS011;13793;55.388;37.844;2023-04-10T02:43:24;41.50;;;27.93;;
26014;SDS011;13793;55.388;37.844;2023-04-10T02:45:54;40.83;;;27.63;;
26014;SDS011;13793;55.388;37.844;2023-04-10T02:48:27;37.73;;;27.00;;
26014;SDS011;13793;55.388;37.844;2023-04-10T02:50:59;39.37;;;27.07;;
26014;SDS011;13793;55.388;37.844;2023-04-10T02:53:29;40.03;;;26.07;;
26014;SDS011;13793;55.388;37.844;2023-04-10T02:56:01;34.70;;;24.93;;
26014;SDS011;13793;55.388;37.844;2023-04-10T02:58:34;35.90;;;24.40;;
26014;SDS011;13793;55.388;37.844;2023-04-10T03:01:05;34.07;;;24.33;;
26014;SDS011;13793;55.388;37.844;2023-04-10T03:03:40;34.00;;;24.93;;
26014;SDS011;13793;55.388;37.844;2023-04-10T03:06:10;36.23;;;24.23;;
26014;SDS011;13793;55.388;37.844;2023-04-10T03:08:41;32.83;;;22.93;;
26014;SDS011;13793;55.388;37.844;2023-04-10T03:11:12;30.53;;;21.53;;
26014;SDS011;13793;55.388;37.844;2023-04-10T03:13:42;31.67;;;22.13;;
26014;SDS011;13793;55.388;37.844;2023-04-10T03:16:12;32.13;;;22.53;;
26014;SDS011;13793;55.388;37.844;2023-04-10T03:18:45;46.93;;;27.90;;
26014;SDS011;13793;55.388;37.844;2023-04-10T03:21:15;102.53;;;48.80;;
26014;SDS011;13793;55.388;37.844;2023-04-10T03:23:46;72.43;;;40.07;;
26014;SDS011;13793;55.388;37.844;2023-04-10T03:26:16;70.60;;;37.03;;
26014;SDS011;13793;55.388;37.844;2023-04-10T03:28:46;60.50;;;33.77;;
26014;SDS011;13793;55.388;37.844;2023-04-10T03:31:16;43.63;;;27.17;;
26014;SDS011;13793;55.388;37.844;2023-04-10T03:33:47;40.63;;;28.03;;
26014;SDS011;13793;55.388;37.844;2023-04-10T03:36:17;40.90;;;26.43;;
26014;SDS011;13793;55.388;37.844;2023-04-10T03:38:48;35.87;;;25.63;;
26014;SDS011;13793;55.388;37.844;2023-04-10T03:41:20;34.57;;;24.87;;
26014;SDS011;13793;55.388;37.844;2023-04-10T03:43:52;34.77;;;23.83;;
26014;SDS011;13793;55.388;37.844;2023-04-10T03:46:23;35.50;;;26.13;;
26014;SDS011;13793;55.388;37.844;2023-04-10T03:48:54;37.07;;;25.57;;
26014;SDS011;13793;55.388;37.844;2023-04-10T03:51:24;32.13;;;22.10;;
26014;SDS011;13793;55.388;37.844;2023-04-10T03:53:55;35.77;;;23.87;;
26014;SDS011;13793;55.388;37.844;2023-04-10T03:56:25;33.23;;;24.57;;
26014;SDS011;13793;55.388;37.844;2023-04-10T03:58:56;37.70;;;25.83;;
26014;SDS011;13793;55.388;37.844;2023-04-10T04:01:29;30.60;;;23.80;;
26014;SDS011;13793;55.388;37.844;2023-04-10T04:04:02;33.23;;;24.77;;
26014;SDS011;13793;55.388;37.844;2023-04-10T04:06:37;32.13;;;23.30;;
26014;SDS011;13793;55.388;37.844;2023-04-10T04:09:09;33.50;;;22.90;;
26014;SDS011;13793;55.388;37.844;2023-04-10T04:11:44;30.23;;;21.37;;
26014;SDS011;13793;55.388;37.844;2023-04-10T04:14:16;34.20;;;23.07;;
26014;SDS011;13793;55.388;37.844;2023-04-10T04:17:05;32.60;;;23.57;;
26014;SDS011;13793;55.388;37.844;2023-04-10T04:19:37;33.37;;;21.43;;
26014;SDS011;13793;55.388;37.844;2023-04-10T04:22:12;31.90;;;22.80;;
26014;SDS011;13793;55.388;37.844;2023-04-10T04:24:44;29.93;;;21.80;;
26014;SDS011;13793;55.388;37.844;2023-04-10T04:27:20;29.63;;;21.03;;
26014;SDS011;13793;55.388;37.844;2023-04-10T04:29:52;29.17;;;20.73;;
26014;SDS011;13793;55.388;37.844;2023-04-10T04:32:30;33.47;;;21.40;;
26014;SDS011;13793;55.388;37.844;2023-04-10T04:35:05;30.13;;;20.40;;
26014;SDS011;13793;55.388;37.844;2023-04-10T04:37:38;30.73;;;20.67;;
26014;SDS011;13793;55.388;37.844;2023-04-10T04:40:27;28.33;;;21.07;;
26014;SDS011;13793;55.388;37.844;2023-04-10T04:42:59;27.10;;;20.70;;
26014;SDS011;13793;55.388;37.844;2023-04-10T04:45:49;29.97;;;19.87;;
26014;SDS011;13793;55.388;37.844;2023-04-10T04:48:31;27.70;;;19.47;;
26014;SDS011;13793;55.388;37.844;2023-04-10T04:51:05;25.57;;;19.27;;
26014;SDS011;13793;55.388;37.844;2023-04-10T04:53:54;30.33;;;19.73;;
26014;SDS011;13793;55.388;37.844;2023-04-10T04:56:28;29.43;;;18.23;;
26014;SDS011;13793;55.388;37.844;2023-04-10T04:59:10;28.03;;;19.97;;
26014;SDS011;13793;55.388;37.844;2023-04-10T05:01:58;23.47;;;17.97;;
26014;SDS011;13793;55.388;37.844;2023-04-10T05:04:37;28.43;;;18.20;;
26014;SDS011;13793;55.388;37.844;2023-04-10T05:07:12;28.87;;;18.97;;
26014;SDS011;13793;55.388;37.844;2023-04-10T05:10:01;25.90;;;17.90;;
26014;SDS011;13793;55.388;37.844;2023-04-10T05:12:43;26.27;;;17.97;;
26014;SDS011;13793;55.388;37.844;2023-04-10T05:15:21;28.10;;;17.97;;
26014;SDS011;13793;55.388;37.844;2023-04-10T05:17:53;27.60;;;17.80;;
26014;SDS011;13793;55.388;37.844;2023-04-10T05:20:35;27.67;;;18.90;;
26014;SDS011;13793;55.388;37.844;2023-04-10T05:23:13;25.30;;;17.63;;
26014;SDS011;13793;55.388;37.844;2023-04-10T05:25:46;25.70;;;17.53;;
26014;SDS011;13793;55.388;37.844;2023-04-10T05:28:18;29.27;;;18.67;;
26014;SDS011;13793;55.388;37.844;2023-04-10T05:30:50;28.30;;;18.83;;
26014;SDS011;13793;55.388;37.844;2023-04-10T05:33:37;24.25;;;18.27;;
26014;SDS011;13793;55.388;37.844;2023-04-10T05:36:12;24.83;;;18.10;;
26014;SDS011;13793;55.388;37.844;2023-04-10T05:39:00;25.47;;;19.00;;
26014;SDS011;13793;55.388;37.844;2023-04-10T05:41:39;30.30;;;20.90;;
26014;SDS011;13793;55.388;37.844;2023-04-10T05:44:29;28.43;;;19.60;;
26014;SDS011;13793;55.388;37.844;2023-04-10T05:47:04;31.60;;;21.20;;
26014;SDS011;13793;55.388;37.844;2023-04-10T05:49:42;33.00;;;22.03;;
26014;SDS011;13793;55.388;37.844;2023-04-10T05:52:33;34.97;;;22.60;;
26014;SDS011;13793;55.388;37.844;2023-04-10T05:55:05;40.50;;;23.80;;
26014;SDS011;13793;55.388;37.844;2023-04-10T05:57:58;33.77;;;22.60;;
26014;SDS011;13793;55.388;37.844;2023-04-10T06:00:34;32.93;;;22.40;;
26014;SDS011;13793;55.388;37.844;2023-04-10T06:03:24;31.63;;;21.60;;
26014;SDS011;13793;55.388;37.844;2023-04-10T06:05:58;37.17;;;22.70;;
26014;SDS011;13793;55.388;37.844;2023-04-10T06:08:30;37.37;;;23.63;;
26014;SDS011;13793;55.388;37.844;2023-04-10T06:11:02;29.63;;;21.57;;
26014;SDS011;13793;55.388;37.844;2023-04-10T06:13:33;37.97;;;23.60;;
26014;SDS011;13793;55.388;37.844;2023-04-10T06:16:04;31.07;;;21.57;;
26014;SDS011;13793;55.388;37.844;2023-04-10T06:18:47;33.93;;;21.37;;
26014;SDS011;13793;55.388;37.844;2023-04-10T06:21:19;30.17;;;20.67;;
26014;SDS011;13793;55.388;37.844;2023-04-10T06:23:49;29.47;;;19.30;;
26014;SDS011;13793;55.388;37.844;2023-04-10T06:26:20;26.90;;;18.93;;
26014;SDS011;13793;55.388;37.844;2023-04-10T06:28:52;33.43;;;21.13;;
26014;SDS011;13793;55.388;37.844;2023-04-10T06:31:24;28.07;;;19.87;;
26014;SDS011;13793;55.388;37.844;2023-04-10T06:33:55;25.97;;;19.70;;
26014;SDS011;13793;55.388;37.844;2023-04-10T06:36:26;28.23;;;20.47;;
26014;SDS011;13793;55.388;37.844;2023-04-10T06:39:01;26.63;;;20.07;;
26014;SDS011;13793;55.388;37.844;2023-04-10T06:41:31;34.50;;;21.60;;
26014;SDS011;13793;55.388;37.844;2023-04-10T06:44:07;31.63;;;21.27;;
26014;SDS011;13793;55.388;37.844;2023-04-10T06:46:37;27.53;;;20.27;;
26014;SDS011;13793;55.388;37.844;2023-04-10T06:49:08;31.87;;;22.20;;
26014;SDS011;13793;55.388;37.844;2023-04-10T06:51:42;33.20;;;21.17;;
26014;SDS011;13793;55.388;37.844;2023-04-10T06:54:13;29.63;;;20.53;;
26014;SDS011;13793;55.388;37.844;2023-04-10T06:56:44;31.70;;;21.17;;
26014;SDS011;13793;55.388;37.844;2023-04-10T06:59:14;35.60;;;20.77;;
26014;SDS011;13793;55.388;37.844;2023-04-10T07:01:45;30.97;;;20.37;;
26014;SDS011;13793;55.388;37.844;2023-04-10T07:04:16;34.20;;;20.60;;
26014;SDS011;13793;55.388;37.844;2023-04-10T07:06:47;30.40;;;19.83;;
26014;SDS011;13793;55.388;37.844;2023-04-10T07:09:18;32.37;;;19.73;;
26014;SDS011;13793;55.388;37.844;2023-04-10T07:12:01;34.38;;;19.65;;
26014;SDS011;13793;55.388;37.844;2023-04-10T07:14:44;26.03;;;19.23;;
26014;SDS011;13793;55.388;37.844;2023-04-10T07:17:14;31.05;;;20.40;;
26014;SDS011;13793;55.388;37.844;2023-04-10T07:19:45;28.32;;;18.52;;
26014;SDS011;13793;55.388;37.844;2023-04-10T07:22:16;28.57;;;19.45;;
26014;SDS011;13793;55.388;37.844;2023-04-10T07:24:46;27.13;;;18.00;;
26014;SDS011;13793;55.388;37.844;2023-04-10T07:27:17;31.55;;;19.82;;
26014;SDS011;13793;55.388;37.844;2023-04-10T07:29:48;28.83;;;18.48;;
26014;SDS011;13793;55.388;37.844;2023-04-10T07:32:19;27.48;;;17.98;;
26014;SDS011;13793;55.388;37.844;2023-04-10T07:34:49;28.62;;;17.65;;
26014;SDS011;13793;55.388;37.844;2023-04-10T07:37:20;25.43;;;16.48;;
26014;SDS011;13793;55.388;37.844;2023-04-10T07:39:51;25.45;;;16.55;;
26014;SDS011;13793;55.388;37.844;2023-04-10T07:42:22;31.50;;;17.40;;
26014;SDS011;13793;55.388;37.844;2023-04-10T07:44:52;26.90;;;16.67;;
26014;SDS011;13793;55.388;37.844;2023-04-10T07:47:23;27.10;;;16.48;;
26014;SDS011;13793;55.388;37.844;2023-04-10T07:49:53;25.62;;;15.78;;
26014;SDS011;13793;55.388;37.844;2023-04-10T07:52:25;25.10;;;15.68;;
26014;SDS011;13793;55.388;37.844;2023-04-10T07:54:56;21.20;;;14.15;;
26014;SDS011;13793;55.388;37.844;2023-04-10T07:57:26;21.30;;;14.20;;
26014;SDS011;13793;55.388;37.844;2023-04-10T07:59:57;24.02;;;14.85;;
26014;SDS011;13793;55.388;37.844;2023-04-10T08:02:29;20.05;;;14.50;;
26014;SDS011;13793;55.388;37.844;2023-04-10T08:05:00;22.70;;;14.60;;
26014;SDS011;13793;55.388;37.844;2023-04-10T08:07:30;18.15;;;12.63;;
26014;SDS011;13793;55.388;37.844;2023-04-10T08:10:01;17.82;;;12.35;;
26014;SDS011;13793;55.388;37.844;2023-04-10T08:12:32;19.15;;;13.38;;
26014;SDS011;13793;55.388;37.844;2023-04-10T08:15:03;17.27;;;12.63;;
26014;SDS011;13793;55.388;37.844;2023-04-10T08:17:34;16.48;;;12.73;;
26014;SDS011;13793;55.388;37.844;2023-04-10T08:20:05;17.37;;;12.90;;
26014;SDS011;13793;55.388;37.844;2023-04-10T08:22:37;17.17;;;12.60;;
26014;SDS011;13793;55.388;37.844;2023-04-10T08:25:08;17.55;;;11.68;;
26014;SDS011;13793;55.388;37.844;2023-04-10T08:27:38;14.10;;;10.70;;
26014;SDS011;13793;55.388;37.844;2023-04-10T08:30:12;15.40;;;12.30;;
26014;SDS011;13793;55.388;37.844;2023-04-10T08:32:43;15.70;;;11.12;;
26014;SDS011;13793;55.388;37.844;2023-04-10T08:35:13;16.55;;;11.03;;
26014;SDS011;13793;55.388;37.844;2023-04-10T08:37:44;18.35;;;11.57;;
26014;SDS011;13793;55.388;37.844;2023-04-10T08:40:15;17.45;;;12.45;;
26014;SDS011;13793;55.388;37.844;2023-04-10T08:42:45;16.10;;;10.65;;
26014;SDS011;13793;55.388;37.844;2023-04-10T08:45:16;13.45;;;11.70;;
26014;SDS011;13793;55.388;37.844;2023-04-10T08:47:47;16.37;;;12.47;;
26014;SDS011;13793;55.388;37.844;2023-04-10T08:50:20;14.55;;;11.30;;
26014;SDS011;13793;55.388;37.844;2023-04-10T08:52:51;13.88;;;10.72;;
26014;SDS011;13793;55.388;37.844;2023-04-10T08:55:23;13.88;;;11.05;;
26014;SDS011;13793;55.388;37.844;2023-04-10T08:57:54;13.03;;;10.48;;
26014;SDS011;13793;55.388;37.844;2023-04-10T09:00:25;14.50;;;9.58;;
26014;SDS011;13793;55.388;37.844;2023-04-10T09:02:57;13.10;;;10.28;;
26014;SDS011;13793;55.388;37.844;2023-04-10T09:05:28;11.70;;;10.08;;
26014;SDS011;13793;55.388;37.844;2023-04-10T09:07:58;12.30;;;9.38;;
26014;SDS011;13793;55.388;37.844;2023-04-10T09:10:29;10.80;;;8.00;;
26014;SDS011;13793;55.388;37.844;2023-04-10T09:13:00;10.68;;;8.55;;
26014;SDS011;13793;55.388;37.844;2023-04-10T09:15:48;13.50;;;8.70;;
26014;SDS011;13793;55.388;37.844;2023-04-10T09:18:10;10.88;;;8.48;;
26014;SDS011;13793;55.388;37.844;2023-04-10T09:20:41;12.70;;;8.53;;
26014;SDS011;13793;55.388;37.844;2023-04-10T09:23:20;9.68;;;8.40;;
26014;SDS011;13793;55.388;37.844;2023-04-10T09:25:50;11.70;;;9.18;;
26014;SDS011;13793;55.388;37.844;2023-04-10T09:28:21;12.28;;;9.78;;
26014;SDS011;13793;55.388;37.844;2023-04-10T09:30:52;11.53;;;9.68;;
26014;SDS011;13793;55.388;37.844;2023-04-10T09:33:26;11.70;;;9.40;;
26014;SDS011;13793;55.388;37.844;2023-04-10T09:35:57;11.33;;;9.00;;
26014;SDS011;13793;55.388;37.844;2023-04-10T09:38:28;11.63;;;9.83;;
26014;SDS011;13793;55.388;37.844;2023-04-10T09:41:10;11.38;;;10.00;;
26014;SDS011;13793;55.388;37.844;2023-04-10T09:43:38;13.28;;;8.98;;
26014;SDS011;13793;55.388;37.844;2023-04-10T09:46:10;16.25;;;11.30;;
26014;SDS011;13793;55.388;37.844;2023-04-10T09:48:46;13.48;;;10.35;;
26014;SDS011;13793;55.388;37.844;2023-04-10T09:51:27;14.25;;;10.18;;
26014;SDS011;13793;55.388;37.844;2023-04-10T09:54:03;12.90;;;9.70;;
26014;SDS011;13793;55.388;37.844;2023-04-10T09:56:35;10.95;;;9.13;;
26014;SDS011;13793;55.388;37.844;2023-04-10T09:59:07;13.25;;;10.50;;
26014;SDS011;13793;55.388;37.844;2023-04-10T10:01:38;12.80;;;9.25;;
26014;SDS011;13793;55.388;37.844;2023-04-10T10:04:10;11.05;;;8.90;;
26014;SDS011;13793;55.388;37.844;2023-04-10T10:06:43;11.38;;;9.45;;
26014;SDS011;13793;55.388;37.844;2023-04-10T10:09:14;11.40;;;8.63;;
26014;SDS011;13793;55.388;37.844;2023-04-10T10:11:45;12.37;;;8.90;;
26014;SDS011;13793;55.388;37.844;2023-04-10T10:14:17;13.32;;;9.15;;
26014;SDS011;13793;55.388;37.844;2023-04-10T10:16:49;15.78;;;11.40;;
26014;SDS011;13793;55.388;37.844;2023-04-10T10:19:21;17.12;;;12.58;;
26014;SDS011;13793;55.388;37.844;2023-04-10T10:21:55;14.63;;;10.68;;
26014;SDS011;13793;55.388;37.844;2023-04-10T10:24:26;20.97;;;12.68;;
26014;SDS011;13793;55.388;37.844;2023-04-10T10:26:57;13.35;;;10.32;;
26014;SDS011;13793;55.388;37.844;2023-04-10T10:29:41;12.43;;;10.23;;
26014;SDS011;13793;55.388;37.844;2023-04-10T10:32:13;11.43;;;9.08;;
26014;SDS011;13793;55.388;37.844;2023-04-10T10:34:46;12.15;;;9.15;;
26014;SDS011;13793;55.388;37.844;2023-04-10T10:37:19;11.33;;;8.58;;
26014;SDS011;13793;55.388;37.844;2023-04-10T10:45:33;9.58;;;7.78;;
26014;SDS011;13793;55.388;37.844;2023-04-10T10:48:15;10.82;;;8.20;;
26014;SDS011;13793;55.388;37.844;2023-04-10T10:50:49;9.75;;;6.92;;
26014;SDS011;13793;55.388;37.844;2023-04-10T10:53:31;9.30;;;7.62;;
26014;SDS011;13793;55.388;37.844;2023-04-10T10:58:52;8.20;;;6.97;;
26014;SDS011;13793;55.388;37.844;2023-04-10T11:01:29;8.75;;;7.42;;
26014;SDS011;13793;55.388;37.844;2023-04-10T11:04:00;9.53;;;7.33;;
26014;SDS011;13793;55.388;37.844;2023-04-10T11:06:50;10.30;;;6.97;;
26014;SDS011;13793;55.388;37.844;2023-04-10T11:12:21;10.63;;;7.58;;
26014;SDS011;13793;55.388;37.844;2023-04-10T11:14:55;10.35;;;8.30;;
26014;SDS011;13793;55.388;37.844;2023-04-10T11:17:48;10.18;;;8.90;;
26014;SDS011;13793;55.388;37.844;2023-04-10T11:20:21;21.85;;;15.43;;
26014;SDS011;13793;55.388;37.844;2023-04-10T11:25:49;8.53;;;7.62;;
26014;SDS011;13793;55.388;37.844;2023-04-10T11:28:52;11.50;;;7.85;;
26014;SDS011;13793;55.388;37.844;2023-04-10T11:34:01;13.68;;;8.08;;
26014;SDS011;13793;55.388;37.844;2023-04-10T11:36:36;10.95;;;8.50;;
26014;SDS011;13793;55.388;37.844;2023-04-10T11:39:12;14.07;;;9.45;;
26014;SDS011;13793;55.388;37.844;2023-04-10T11:41:46;13.10;;;10.10;;
26014;SDS011;13793;55.388;37.844;2023-04-10T11:44:28;11.43;;;8.10;;
26014;SDS011;13793;55.388;37.844;2023-04-10T11:47:01;11.83;;;8.73;;
26014;SDS011;13793;55.388;37.844;2023-04-10T11:49:32;11.08;;;8.73;;
26014;SDS011;13793;55.388;37.844;2023-04-10T11:52:04;9.68;;;7.65;;
26014;SDS011;13793;55.388;37.844;2023-04-10T11:54:35;11.10;;;8.80;;
26014;SDS011;13793;55.388;37.844;2023-04-10T11:57:06;10.70;;;8.95;;
26014;SDS011;13793;55.388;37.844;2023-04-10T11:59:39;10.40;;;8.13;;
26014;SDS011;13793;55.388;37.844;2023-04-10T12:02:10;10.03;;;7.58;;
26014;SDS011;13793;55.388;37.844;2023-04-10T12:04:42;9.15;;;7.35;;
26014;SDS011;13793;55.388;37.844;2023-04-10T12:07:16;9.30;;;7.25;;
26014;SDS011;13793;55.388;37.844;2023-04-10T12:09:54;7.17;;;6.33;;
26014;SDS011;13793;55.388;37.844;2023-04-10T12:12:36;7.05;;;6.08;;
26014;SDS011;13793;55.388;37.844;2023-04-10T12:18:08;9.70;;;7.65;;
26014;SDS011;13793;55.388;37.844;2023-04-10T12:20:39;9.28;;;7.80;;
26014;SDS011;13793;55.388;37.844;2023-04-10T12:23:09;10.40;;;7.10;;
26014;SDS011;13793;55.388;37.844;2023-04-10T12:25:40;10.38;;;8.03;;
26014;SDS011;13793;55.388;37.844;2023-04-10T12:28:22;10.60;;;7.70;;
26014;SDS011;13793;55.388;37.844;2023-04-10T12:30:59;9.18;;;7.55;;
26014;SDS011;13793;55.388;37.844;2023-04-10T12:33:30;9.70;;;7.87;;
26014;SDS011;13793;55.388;37.844;2023-04-10T12:36:01;8.30;;;7.40;;
26014;SDS011;13793;55.388;37.844;2023-04-10T12:38:38;10.35;;;7.80;;
26014;SDS011;13793;55.388;37.844;2023-04-10T12:41:10;10.23;;;7.83;;
26014;SDS011;13793;55.388;37.844;2023-04-10T12:43:41;10.78;;;9.00;;
26014;SDS011;13793;55.388;37.844;2023-04-10T12:46:21;10.53;;;8.33;;
26014;SDS011;13793;55.388;37.844;2023-04-10T12:49:06;9.18;;;7.65;;
26014;SDS011;13793;55.388;37.844;2023-04-10T12:51:50;11.45;;;10.00;;
26014;SDS011;13793;55.388;37.844;2023-04-10T12:57:00;11.38;;;9.08;;
26014;SDS011;13793;55.388;37.844;2023-04-10T12:59:31;11.78;;;9.58;;
26014;SDS011;13793;55.388;37.844;2023-04-10T13:02:02;12.88;;;10.10;;
26014;SDS011;13793;55.388;37.844;2023-04-10T13:04:33;14.35;;;10.03;;
26014;SDS011;13793;55.388;37.844;2023-04-10T13:07:04;13.60;;;9.63;;
26014;SDS011;13793;55.388;37.844;2023-04-10T13:09:34;12.60;;;10.72;;
26014;SDS011;13793;55.388;37.844;2023-04-10T13:12:05;12.15;;;9.90;;
26014;SDS011;13793;55.388;37.844;2023-04-10T13:14:36;12.45;;;10.08;;
26014;SDS011;13793;55.388;37.844;2023-04-10T13:17:06;12.70;;;9.95;;
26014;SDS011;13793;55.388;37.844;2023-04-10T13:19:37;15.85;;;10.65;;
26014;SDS011;13793;55.388;37.844;2023-04-10T13:22:08;13.20;;;10.13;;
26014;SDS011;13793;55.388;37.844;2023-04-10T13:24:39;12.20;;;10.40;;
26014;SDS011;13793;55.388;37.844;2023-04-10T13:27:09;16.23;;;10.85;;
26014;SDS011;13793;55.388;37.844;2023-04-10T13:29:41;17.07;;;11.12;;
26014;SDS011;13793;55.388;37.844;2023-04-10T13:32:11;14.35;;;11.50;;
26014;SDS011;13793;55.388;37.844;2023-04-10T13:34:42;12.35;;;9.55;;
26014;SDS011;13793;55.388;37.844;2023-04-10T13:37:13;11.78;;;9.98;;
26014;SDS011;13793;55.388;37.844;2023-04-10T13:39:43;14.23;;;10.75;;
26014;SDS011;13793;55.388;37.844;2023-04-10T13:42:14;15.25;;;11.10;;
26014;SDS011;13793;55.388;37.844;2023-04-10T13:44:44;19.90;;;10.15;;
26014;SDS011;13793;55.388;37.844;2023-04-10T13:47:15;14.70;;;10.00;;
26014;SDS011;13793;55.388;37.844;2023-04-10T13:49:45;13.60;;;10.00;;
26014;SDS011;13793;55.388;37.844;2023-04-10T13:52:16;13.95;;;10.88;;
26014;SDS011;13793;55.388;37.844;2023-04-10T13:54:47;13.95;;;10.05;;
26014;SDS011;13793;55.388;37.844;2023-04-10T13:57:18;12.15;;;10.53;;
26014;SDS011;13793;55.388;37.844;2023-04-10T13:59:48;14.23;;;10.50;;
26014;SDS011;13793;55.388;37.844;2023-04-10T14:02:19;14.10;;;11.10;;
26014;SDS011;13793;55.388;37.844;2023-04-10T14:04:53;14.78;;;11.33;;
26014;SDS011;13793;55.388;37.844;2023-04-10T14:07:24;14.03;;;10.65;;
26014;SDS011;13793;55.388;37.844;2023-04-10T14:09:54;16.93;;;10.30;;
26014;SDS011;13793;55.388;37.844;2023-04-10T14:12:25;18.37;;;10.75;;
26014;SDS011;13793;55.388;37.844;2023-04-10T14:14:56;21.57;;;11.40;;
26014;SDS011;13793;55.388;37.844;2023-04-10T14:17:29;18.07;;;11.38;;
26014;SDS011;13793;55.388;37.844;2023-04-10T14:19:59;16.37;;;10.55;;
26014;SDS011;13793;55.388;37.844;2023-04-10T14:22:29;18.65;;;11.75;;
26014;SDS011;13793;55.388;37.844;2023-04-10T14:25:14;16.15;;;11.60;;
26014;SDS011;13793;55.388;37.844;2023-04-10T14:27:44;15.83;;;11.03;;
26014;SDS011;13793;55.388;37.844;2023-04-10T14:30:15;14.78;;;11.45;;
26014;SDS011;13793;55.388;37.844;2023-04-10T14:32:45;21.57;;;12.13;;
26014;SDS011;13793;55.388;37.844;2023-04-10T14:35:16;18.30;;;12.18;;
26014;SDS011;13793;55.388;37.844;2023-04-10T14:37:46;19.20;;;11.95;;
26014;SDS011;13793;55.388;37.844;2023-04-10T14:40:17;19.82;;;12.45;;
26014;SDS011;13793;55.388;37.844;2023-04-10T14:42:47;18.52;;;11.25;;
26014;SDS011;13793;55.388;37.844;2023-04-10T14:45:19;20.30;;;11.97;;
26014;SDS011;13793;55.388;37.844;2023-04-10T14:47:49;16.73;;;11.88;;
26014;SDS011;13793;55.388;37.844;2023-04-10T14:50:20;15.35;;;11.33;;
26014;SDS011;13793;55.388;37.844;2023-04-10T14:52:51;17.48;;;11.70;;
26014;SDS011;13793;55.388;37.844;2023-04-10T14:55:21;16.85;;;11.83;;
26014;SDS011;13793;55.388;37.844;2023-04-10T14:57:52;17.92;;;12.85;;
26014;SDS011;13793;55.388;37.844;2023-04-10T15:00:23;19.73;;;14.38;;
26014;SDS011;13793;55.388;37.844;2023-04-10T15:02:53;20.30;;;12.33;;
26014;SDS011;13793;55.388;37.844;2023-04-10T15:05:27;17.32;;;11.10;;
26014;SDS011;13793;55.388;37.844;2023-04-10T15:07:57;17.70;;;12.07;;
26014;SDS011;13793;55.388;37.844;2023-04-10T15:10:28;18.48;;;11.85;;
26014;SDS011;13793;55.388;37.844;2023-04-10T15:12:59;16.67;;;11.20;;
26014;SDS011;13793;55.388;37.844;2023-04-10T15:15:29;17.67;;;11.93;;